createdAt,value
2017-08-14T03:32:01.694Z,5.53
2017-08-14T03:34:29.360Z,5.57
2017-08-14T03:36:57.013Z,5.40
2017-08-14T03:39:25.041Z,4.87
2017-08-14T03:41:52.706Z,5.57
2017-08-14T03:44:21.121Z,5.53
2017-08-14T03:46:48.782Z,5.20
2017-08-14T03:49:16.429Z,6.33
2017-08-14T03:51:44.084Z,6.17
2017-08-14T03:54:11.718Z,5.47
2017-08-14T03:56:40.150Z,6.50
2017-08-14T03:59:07.810Z,6.47
2017-08-14T04:01:35.888Z,8.10
2017-08-14T04:04:03.534Z,7.20
2017-08-14T04:06:31.196Z,5.10
2017-08-14T04:08:59.884Z,5.43
2017-08-14T04:11:27.541Z,5.77
2017-08-14T04:13:55.179Z,5.63
2017-08-14T04:16:23.224Z,5.23
2017-08-14T04:18:50.885Z,5.83
2017-08-14T04:21:18.522Z,6.10
2017-08-14T04:23:46.590Z,6.50
2017-08-14T04:26:14.234Z,6.10
2017-08-14T04:28:41.878Z,6.73
2017-08-14T04:31:09.933Z,6.70
2017-08-14T04:33:38.341Z,6.40
2017-08-14T04:36:05.993Z,6.07
2017-08-14T04:38:34.048Z,6.67
2017-08-14T04:41:01.747Z,6.37
2017-08-14T04:43:29.445Z,5.67
2017-08-14T04:45:57.438Z,6.23
2017-08-14T04:48:25.848Z,6.50
2017-08-14T04:50:53.537Z,6.10
2017-08-14T04:53:21.527Z,6.33
2017-08-14T04:55:49.202Z,5.50
2017-08-14T04:58:17.612Z,6.10
2017-08-14T05:00:45.781Z,5.20
2017-08-14T05:03:13.425Z,4.87
2017-08-14T05:05:41.833Z,5.40
2017-08-14T05:08:09.883Z,5.70
2017-08-14T05:10:37.537Z,6.50
2017-08-14T05:13:05.169Z,5.57
2017-08-14T05:15:32.816Z,5.53
2017-08-14T05:18:00.496Z,5.40
2017-08-14T05:20:28.575Z,5.03
2017-08-14T05:22:56.993Z,4.30
2017-08-14T05:25:24.626Z,4.23
2017-08-14T05:27:53.076Z,4.20
2017-08-14T05:30:20.733Z,4.13
2017-08-14T05:32:48.399Z,4.93
2017-08-14T05:35:16.057Z,5.77
2017-08-14T05:37:44.044Z,5.30
2017-08-14T05:40:11.704Z,5.13
2017-08-14T05:42:39.344Z,4.70
2017-08-14T05:45:06.994Z,4.33
2017-08-14T05:47:34.620Z,4.90
2017-08-14T05:50:02.338Z,4.50
2017-08-14T05:52:29.987Z,3.60
2017-08-14T05:54:58.004Z,3.90
2017-08-14T05:57:26.412Z,5.10
2017-08-14T05:59:54.066Z,4.00
2017-08-14T06:02:21.775Z,4.60
2017-08-14T06:04:49.428Z,4.30
2017-08-14T06:07:17.091Z,3.90
2017-08-14T06:09:44.730Z,4.73
2017-08-14T06:12:12.728Z,4.43
2017-08-14T06:14:40.367Z,4.20
2017-08-14T06:17:08.415Z,4.03
2017-08-14T06:19:36.082Z,4.03
2017-08-14T06:22:03.729Z,3.93
2017-08-14T06:24:31.689Z,4.20
2017-08-14T06:27:00.103Z,4.17
2017-08-14T06:29:27.756Z,3.47
2017-08-14T06:31:55.795Z,5.00
2017-08-14T06:34:24.204Z,4.30
2017-08-14T06:36:51.862Z,3.87
2017-08-14T06:39:19.929Z,3.90
2017-08-14T06:41:47.577Z,5.00
2017-08-14T06:44:16.183Z,4.53
2017-08-14T06:46:44.351Z,3.33
2017-08-14T06:49:12.240Z,3.50
2017-08-14T06:51:39.992Z,3.50
2017-08-14T06:54:08.043Z,4.00
2017-08-14T06:56:36.481Z,4.30
2017-08-14T06:59:04.130Z,4.37
2017-08-14T07:01:32.264Z,3.87
2017-08-14T07:03:59.904Z,3.77
2017-08-14T07:06:28.292Z,3.30
2017-08-14T07:08:57.197Z,3.10
2017-08-14T07:11:24.846Z,3.10
2017-08-14T07:13:52.493Z,3.40
2017-08-14T07:16:21.286Z,3.40
2017-08-14T07:18:49.720Z,2.70
2017-08-14T07:21:17.352Z,2.60
2017-08-14T07:23:45.417Z,2.90
2017-08-14T07:26:13.067Z,3.17
2017-08-14T07:28:41.472Z,3.20
2017-08-14T07:31:09.491Z,3.10
2017-08-14T07:33:37.165Z,3.00
2017-08-14T07:36:05.578Z,2.80
2017-08-14T07:38:33.619Z,2.87
2017-08-14T07:41:02.028Z,3.03
2017-08-14T07:43:29.667Z,3.07
2017-08-14T07:45:58.476Z,3.27
2017-08-14T07:48:26.117Z,2.90
2017-08-14T07:50:54.559Z,2.90
2017-08-14T07:53:22.771Z,3.20
2017-08-14T07:55:50.459Z,2.90
2017-08-14T07:58:18.097Z,3.07
2017-08-14T08:00:46.857Z,3.17
2017-08-14T08:03:14.540Z,3.67
2017-08-14T08:05:42.938Z,3.30
2017-08-14T08:08:10.929Z,3.57
2017-08-14T08:10:39.452Z,2.83
2017-08-14T08:13:07.094Z,2.63
2017-08-14T08:15:35.119Z,2.90
2017-08-14T08:18:02.925Z,3.23
2017-08-14T08:20:30.582Z,2.63
2017-08-14T08:22:58.256Z,2.97
2017-08-14T08:25:25.899Z,2.57
2017-08-14T08:27:53.596Z,2.63
2017-08-14T08:30:21.326Z,2.50
2017-08-14T08:32:49.013Z,2.30
2017-08-14T08:37:51.049Z,2.73
2017-08-14T08:40:18.680Z,2.50
2017-08-14T08:42:47.087Z,2.90
2017-08-14T08:45:14.749Z,2.80
2017-08-14T08:47:42.390Z,2.63
2017-08-14T08:50:10.829Z,2.60
2017-08-14T08:52:38.503Z,2.60
2017-08-14T08:55:06.184Z,2.20
2017-08-14T08:57:34.610Z,2.20
2017-08-14T09:00:02.904Z,2.27
2017-08-14T09:02:30.580Z,3.20
2017-08-14T09:04:58.254Z,3.53
2017-08-14T09:07:25.934Z,2.40
2017-08-14T09:09:53.600Z,2.37
2017-08-14T09:12:22.113Z,2.10
2017-08-14T09:14:49.773Z,2.20
2017-08-14T09:17:17.522Z,1.97
2017-08-14T09:19:45.148Z,2.00
2017-08-14T09:22:12.809Z,2.20
2017-08-14T09:24:40.455Z,2.27
2017-08-14T09:27:08.494Z,2.53
2017-08-14T09:29:36.144Z,2.30
2017-08-14T09:32:03.834Z,2.40
2017-08-14T09:34:31.581Z,2.30
2017-08-14T09:36:59.236Z,2.30
2017-08-14T09:39:27.301Z,2.33
2017-08-14T09:41:54.966Z,1.93
2017-08-14T09:44:22.617Z,1.80
2017-08-14T09:46:50.673Z,1.80
2017-08-14T09:49:19.091Z,1.83
2017-08-14T09:51:46.719Z,1.80
2017-08-14T09:54:15.466Z,1.80
2017-08-14T09:56:43.108Z,2.10
2017-08-14T09:59:10.747Z,2.10
2017-08-14T10:01:38.794Z,2.30
2017-08-14T10:04:07.356Z,2.40
2017-08-14T10:06:34.989Z,2.20
2017-08-14T10:09:03.037Z,2.20
2017-08-14T10:11:30.714Z,2.03
2017-08-14T10:13:58.378Z,2.10
2017-08-14T10:16:26.438Z,2.50
2017-08-14T10:18:54.110Z,2.50
2017-08-14T10:21:21.797Z,2.40
2017-08-14T10:23:49.490Z,2.60
2017-08-14T10:26:17.946Z,2.50
2017-08-14T10:28:45.595Z,2.70
2017-08-14T10:31:13.278Z,2.80
2017-08-14T10:33:40.918Z,2.40
2017-08-14T10:36:08.571Z,2.22
2017-08-14T10:38:36.204Z,2.37
2017-08-14T10:41:03.873Z,2.45
2017-08-14T10:43:31.524Z,2.45
2017-08-14T10:45:59.499Z,2.60
2017-08-14T10:48:27.157Z,2.30
2017-08-14T10:50:54.828Z,2.67
2017-08-14T10:53:22.526Z,3.70
2017-08-14T10:55:50.180Z,2.87
2017-08-14T10:58:17.851Z,2.80
2017-08-14T11:00:45.573Z,2.62
2017-08-14T11:03:13.748Z,2.97
2017-08-14T11:05:41.407Z,3.37
2017-08-14T11:08:09.051Z,2.80
2017-08-14T11:10:37.483Z,2.95
2017-08-14T11:13:05.131Z,2.72
2017-08-14T11:15:33.441Z,2.50
2017-08-14T11:18:01.137Z,2.50
2017-08-14T11:20:28.837Z,1.92
2017-08-14T11:22:56.531Z,2.25
2017-08-14T11:25:24.359Z,2.17
2017-08-14T11:27:52.034Z,2.37
2017-08-14T11:30:19.712Z,2.35
2017-08-14T11:32:47.630Z,2.10
2017-08-14T11:35:15.312Z,2.10
2017-08-14T11:37:43.349Z,2.00
2017-08-14T11:40:11.766Z,2.08
2017-08-14T11:42:39.401Z,1.75
2017-08-14T11:45:07.076Z,2.08
2017-08-14T11:47:34.727Z,1.77
2017-08-14T11:50:02.416Z,2.10
2017-08-14T11:52:30.064Z,1.70
2017-08-14T11:54:58.128Z,1.60
2017-08-14T11:57:25.765Z,1.80
2017-08-14T11:59:54.190Z,1.40
2017-08-14T12:02:22.432Z,1.67
2017-08-14T12:04:50.073Z,1.70
2017-08-14T12:07:17.726Z,2.00
2017-08-14T12:09:45.716Z,1.70
2017-08-14T12:12:14.100Z,1.87
2017-08-14T12:14:42.516Z,1.63
2017-08-14T12:17:10.514Z,1.83
2017-08-14T12:19:38.145Z,1.70
2017-08-14T12:22:05.807Z,1.97
2017-08-14T12:24:33.783Z,1.57
2017-08-14T12:27:01.445Z,1.90
2017-08-14T12:29:29.081Z,1.80
2017-08-14T12:31:57.130Z,1.80
2017-08-14T12:34:25.529Z,1.87
2017-08-14T12:36:53.198Z,1.90
2017-08-14T12:39:21.233Z,1.83
2017-08-14T12:41:48.888Z,1.70
2017-08-14T12:44:16.561Z,1.77
2017-08-14T12:46:45.311Z,1.70
2017-08-14T12:49:12.954Z,2.00
2017-08-14T12:51:40.617Z,1.57
2017-08-14T12:54:08.675Z,2.17
2017-08-14T12:56:36.368Z,1.50
2017-08-14T12:59:04.013Z,1.30
2017-08-14T13:01:32.065Z,1.40
2017-08-14T13:03:59.705Z,1.63
2017-08-14T13:06:28.277Z,1.67
2017-08-14T13:08:56.056Z,2.00
2017-08-14T13:11:24.475Z,1.67
2017-08-14T13:13:52.460Z,1.80
2017-08-14T13:16:20.148Z,1.70
2017-08-14T13:18:47.803Z,1.60
2017-08-14T13:21:15.473Z,1.70
2017-08-14T13:23:43.132Z,1.90
2017-08-14T13:26:10.829Z,1.90
2017-08-14T13:28:43.059Z,1.70
2017-08-14T13:34:08.331Z,1.70
2017-08-14T13:36:35.989Z,1.67
2017-08-14T13:39:03.619Z,1.67
2017-08-14T13:41:32.773Z,1.40
2017-08-14T13:44:00.783Z,1.53
2017-08-14T13:46:29.211Z,1.50
2017-08-14T13:48:56.887Z,1.50
2017-08-14T13:51:25.087Z,1.87
2017-08-14T13:53:53.236Z,1.70
2017-08-14T13:56:20.887Z,1.50
2017-08-14T13:58:48.557Z,1.80
2017-08-14T14:01:16.189Z,1.70
2017-08-14T14:03:43.944Z,1.70
2017-08-14T14:06:11.734Z,1.70
2017-08-14T14:08:40.279Z,1.40
2017-08-14T14:11:08.021Z,1.47
2017-08-14T14:13:35.660Z,1.80
2017-08-14T14:16:03.649Z,1.90
2017-08-14T14:18:31.282Z,1.50
2017-08-14T14:20:58.937Z,1.70
2017-08-14T14:23:26.985Z,1.67
2017-08-14T14:25:54.635Z,1.53
2017-08-14T14:28:23.146Z,1.53
2017-08-14T14:30:51.201Z,1.70
2017-08-14T14:33:18.865Z,1.40
2017-08-14T14:35:46.518Z,1.60
2017-08-14T14:38:15.308Z,1.50
2017-08-14T14:40:43.303Z,1.50
2017-08-14T14:43:10.946Z,1.60
2017-08-14T14:45:39.018Z,1.60
2017-08-14T14:48:06.692Z,1.70
2017-08-14T14:50:34.337Z,1.30
2017-08-14T14:53:03.110Z,1.37
2017-08-14T14:55:31.512Z,1.40
2017-08-14T14:57:59.162Z,1.80
2017-08-14T15:00:27.931Z,1.70
2017-08-14T15:02:55.564Z,1.60
2017-08-14T15:05:23.200Z,1.50
2017-08-14T15:07:51.337Z,1.67
2017-08-14T15:10:19.767Z,1.43
2017-08-14T15:12:47.398Z,1.53
2017-08-14T15:15:15.408Z,2.00
2017-08-14T15:17:43.081Z,1.53
2017-08-14T15:20:10.712Z,1.60
2017-08-14T15:22:38.698Z,1.30
2017-08-14T15:25:06.362Z,1.70
2017-08-14T15:27:34.578Z,1.60
2017-08-14T15:30:02.581Z,1.50
2017-08-14T15:32:30.242Z,1.60
2017-08-14T15:34:57.890Z,1.80
2017-08-14T15:37:25.945Z,1.40
2017-08-14T15:39:54.358Z,1.67
2017-08-14T15:42:22.028Z,1.73
2017-08-14T15:44:49.996Z,1.50
2017-08-14T15:47:17.611Z,1.60
2017-08-14T15:49:46.042Z,1.40
2017-08-14T15:52:14.065Z,1.60
2017-08-14T15:54:41.725Z,1.80
2017-08-14T15:57:09.381Z,1.70
2017-08-14T15:59:38.194Z,1.60
2017-08-14T16:02:05.845Z,1.97
2017-08-14T16:04:33.544Z,2.00
2017-08-14T16:07:01.602Z,1.40
2017-08-14T16:09:29.271Z,1.70
2017-08-14T16:11:56.949Z,1.40
2017-08-14T16:14:24.936Z,1.47
2017-08-14T16:16:52.578Z,1.70
2017-08-14T16:19:32.362Z,1.43
2017-08-14T16:22:00.770Z,1.60
2017-08-14T16:24:28.410Z,1.57
2017-08-14T16:26:56.384Z,1.40
2017-08-14T16:29:24.029Z,1.73
2017-08-14T16:31:52.074Z,1.30
2017-08-14T16:34:20.097Z,1.77
2017-08-14T16:36:47.750Z,1.30
2017-08-14T16:39:16.181Z,1.57
2017-08-14T16:41:44.209Z,1.23
2017-08-14T16:44:11.860Z,1.40
2017-08-14T16:46:41.028Z,1.40
2017-08-14T16:49:09.017Z,1.53
2017-08-14T16:51:36.725Z,1.23
2017-08-14T16:54:04.377Z,1.20
2017-08-14T16:56:32.425Z,1.30
2017-08-14T16:59:00.847Z,3.73
2017-08-14T17:01:28.542Z,7.90
2017-08-14T17:03:56.550Z,4.40
2017-08-14T17:06:24.217Z,5.17
2017-08-14T17:08:51.867Z,2.07
2017-08-14T17:11:19.856Z,1.70
2017-08-14T17:13:47.495Z,1.40
2017-08-14T17:16:15.928Z,1.80
2017-08-14T17:18:43.912Z,1.50
2017-08-14T17:21:11.576Z,1.50
2017-08-14T17:23:39.440Z,1.33
2017-08-14T17:26:07.439Z,1.30
2017-08-14T17:28:35.880Z,1.60
2017-08-14T17:31:03.544Z,1.70
2017-08-14T17:33:31.564Z,1.60
2017-08-14T17:35:59.239Z,1.97
2017-08-14T17:38:26.916Z,1.73
2017-08-14T17:40:54.978Z,2.07
2017-08-14T17:43:22.659Z,1.47
2017-08-14T17:45:50.332Z,1.70
2017-08-14T17:48:18.403Z,1.70
2017-08-14T17:50:46.055Z,1.60
2017-08-14T17:53:13.699Z,1.70
2017-08-14T17:55:41.746Z,1.80
2017-08-14T17:58:09.488Z,1.87
2017-08-14T18:00:37.226Z,2.03
2017-08-14T18:03:05.190Z,2.00
2017-08-14T18:05:32.849Z,1.90
2017-08-14T18:08:00.508Z,1.87
2017-08-14T18:10:28.545Z,1.70
2017-08-14T18:12:56.211Z,2.03
2017-08-14T18:15:23.888Z,1.70
2017-08-14T18:17:51.871Z,1.90
2017-08-14T18:20:19.534Z,1.80
2017-08-14T18:22:47.184Z,1.70
2017-08-14T18:25:15.205Z,1.50
2017-08-14T18:27:42.854Z,1.80
2017-08-14T18:30:10.497Z,1.90
2017-08-14T18:32:38.504Z,1.80
2017-08-14T18:35:06.140Z,1.57
2017-08-14T18:37:33.802Z,2.00
2017-08-14T18:40:01.820Z,1.80
2017-08-14T18:42:29.505Z,1.67
2017-08-14T18:44:57.164Z,1.77
2017-08-14T18:47:25.195Z,1.90
2017-08-14T18:49:53.606Z,1.77
2017-08-14T18:52:21.264Z,1.80
2017-08-14T18:54:49.249Z,2.03
2017-08-14T18:57:17.014Z,1.80
2017-08-14T18:59:44.703Z,1.77
2017-08-14T19:02:12.353Z,1.97
2017-08-14T19:04:39.997Z,2.07
2017-08-14T19:07:07.993Z,1.90
2017-08-14T19:09:36.922Z,2.10
2017-08-14T19:12:03.319Z,2.00
2017-08-14T19:14:30.965Z,1.77
2017-08-14T19:16:58.616Z,1.90
2017-08-14T19:19:26.307Z,2.13
2017-08-14T19:21:53.985Z,1.63
2017-08-14T19:24:22.435Z,1.60
2017-08-14T19:26:50.101Z,2.23
2017-08-14T19:29:18.136Z,1.90
2017-08-14T19:31:45.780Z,2.00
2017-08-14T19:34:14.210Z,1.80
2017-08-14T19:36:42.267Z,1.73
2017-08-14T19:39:09.974Z,1.97
2017-08-14T19:41:38.378Z,1.90
2017-08-14T19:44:06.469Z,2.33
2017-08-14T19:46:34.212Z,2.10
2017-08-14T19:49:01.915Z,2.40
2017-08-14T19:51:29.897Z,2.40
2017-08-14T19:53:57.569Z,2.27
2017-08-14T19:56:25.216Z,2.10
2017-08-14T19:58:53.673Z,1.80
2017-08-14T20:01:22.229Z,2.03
2017-08-14T20:03:49.878Z,1.97
2017-08-14T20:06:17.983Z,1.70
2017-08-14T20:08:45.654Z,2.13
2017-08-14T20:11:13.308Z,2.27
2017-08-14T20:13:41.297Z,2.40
2017-08-14T20:16:08.960Z,2.00
2017-08-14T20:18:36.668Z,2.13
2017-08-14T20:21:04.345Z,2.37
2017-08-14T20:23:32.002Z,2.43
2017-08-14T20:26:00.515Z,2.70
2017-08-14T20:28:28.178Z,2.10
2017-08-14T20:30:55.869Z,2.13
2017-08-14T20:33:23.525Z,2.30
2017-08-14T20:35:51.186Z,1.80
2017-08-14T20:38:19.655Z,2.17
2017-08-14T20:40:47.330Z,2.10
2017-08-14T20:43:14.988Z,2.10
2017-08-14T20:45:42.632Z,2.17
2017-08-14T20:48:10.296Z,2.17
2017-08-14T20:50:37.944Z,1.97
2017-08-14T20:53:05.906Z,2.40
2017-08-14T20:55:33.536Z,2.23
2017-08-14T20:58:01.394Z,2.30
2017-08-14T21:00:29.077Z,1.90
2017-08-14T21:02:57.524Z,2.10
2017-08-14T21:05:25.197Z,3.00
2017-08-14T21:07:52.852Z,2.00
2017-08-14T21:10:20.859Z,1.97
2017-08-14T21:12:48.507Z,2.10
2017-08-14T21:15:16.918Z,2.27
2017-08-14T21:17:44.590Z,1.90
2017-08-14T21:20:12.268Z,2.27
2017-08-14T21:22:39.946Z,2.17
2017-08-14T21:25:07.621Z,2.00
2017-08-14T21:27:35.569Z,2.20
2017-08-14T21:30:03.267Z,2.30
2017-08-14T21:32:32.082Z,2.20
2017-08-14T21:34:59.723Z,2.40
2017-08-14T21:37:28.149Z,2.40
2017-08-14T21:39:55.824Z,2.40
2017-08-14T21:42:23.488Z,2.20
2017-08-14T21:44:51.225Z,2.30
2017-08-14T21:47:18.881Z,2.37
2017-08-14T21:49:46.930Z,2.40
2017-08-14T21:52:14.582Z,2.63
2017-08-14T21:54:42.980Z,2.67
2017-08-14T21:57:10.779Z,2.97
2017-08-14T21:59:38.455Z,2.70
2017-08-14T22:02:06.144Z,2.63
2017-08-14T22:04:34.574Z,2.37
2017-08-14T22:07:02.237Z,2.70
2017-08-14T22:09:29.881Z,3.20
2017-08-14T22:11:57.931Z,2.80
2017-08-14T22:14:26.548Z,3.00
2017-08-14T22:16:54.224Z,2.80
2017-08-14T22:19:21.880Z,2.80
2017-08-14T22:21:49.540Z,2.40
2017-08-14T22:24:17.198Z,2.70
2017-08-14T22:26:44.844Z,3.00
2017-08-14T22:29:12.899Z,2.70
